Denver, Colorado
Traffic Map
Current Weather Conditions
Denver, Colorado
Overcast
Overcast
68°
Feels Like: 68°
Wind Chill: 68° Ceiling: 22000
Heat Index: 68° Visibility: 50mi
Dew Point: 25° Wind: 18mph
Humidity: 20% Direction: 260° (W)
Pressure: 30.17in Gusts: 29mph
Raw Report DataKBJC 231746Z 26016G25KT 50SM SCT160 OVC220 20/M04 A3017
Traffic Incident Summary
Active as of:
Severity:
Category:
InformationThere was an issue retrieving the traffic information for this location. Please try a different location or try again shortly.
Advertisements